createdAt,value
2018-01-16T00:01:57.765Z,99.90
2018-01-16T00:04:27.749Z,99.90
2018-01-16T00:06:59.213Z,99.90
2018-01-16T00:09:29.225Z,99.90
2018-01-16T00:11:57.241Z,99.90
2018-01-16T00:14:34.545Z,99.90
2018-01-16T00:17:02.545Z,99.90
2018-01-16T00:19:30.561Z,99.90
2018-01-16T00:21:59.349Z,99.90
2018-01-16T00:24:28.149Z,99.90
2018-01-16T00:26:59.085Z,99.90
2018-01-16T00:29:37.749Z,99.90
2018-01-16T00:32:09.704Z,99.90
2018-01-16T00:34:37.745Z,99.90
2018-01-16T00:37:06.685Z,99.90
2018-01-16T00:39:35.664Z,99.90
2018-01-16T00:42:03.701Z,99.90
2018-01-16T00:44:31.717Z,99.90
2018-01-16T00:46:59.805Z,99.90
2018-01-16T00:49:28.781Z,99.90
2018-01-16T00:51:56.781Z,99.90
2018-01-16T00:54:24.796Z,99.90
2018-01-16T00:56:53.853Z,99.90
2018-01-16T00:59:27.326Z,99.90
2018-01-16T01:01:57.369Z,99.90
2018-01-16T01:04:25.436Z,99.90
2018-01-16T01:06:56.141Z,99.90
2018-01-16T01:09:25.133Z,99.90
2018-01-16T01:11:54.097Z,99.90
2018-01-16T01:14:23.125Z,99.90
2018-01-16T01:16:53.897Z,99.90
2018-01-16T01:19:29.589Z,99.90
2018-01-16T01:21:57.600Z,99.90
2018-01-16T01:24:26.545Z,99.90
2018-01-16T01:26:54.581Z,99.90
2018-01-16T01:29:34.623Z,99.90
2018-01-16T01:32:04.557Z,99.90
2018-01-16T01:34:33.549Z,99.90
2018-01-16T01:37:01.569Z,99.90
2018-01-16T01:39:30.392Z,99.90
2018-01-16T01:42:10.444Z,99.90
2018-01-16T01:44:39.380Z,99.90
2018-01-16T01:47:07.412Z,99.90
2018-01-16T01:49:36.664Z,99.90
2018-01-16T01:52:09.301Z,99.90
2018-01-16T01:54:38.216Z,99.90
2018-01-16T01:59:40.788Z,99.90
2018-01-16T02:02:10.807Z,99.90
2018-01-16T02:04:39.824Z,99.90
2018-01-16T02:07:23.444Z,99.90
2018-01-16T02:09:56.942Z,99.90
2018-01-16T02:12:24.981Z,99.90
2018-01-16T02:14:56.424Z,99.90
2018-01-16T02:17:29.149Z,99.90
2018-01-16T02:20:03.440Z,99.90
2018-01-16T02:22:33.360Z,99.90
2018-01-16T02:25:05.388Z,99.90
2018-01-16T02:27:33.440Z,99.90
2018-01-16T02:30:06.180Z,99.90
2018-01-16T02:32:34.197Z,99.90
2018-01-16T02:35:04.872Z,99.90
2018-01-16T02:37:33.876Z,99.90
2018-01-16T02:40:05.516Z,99.90
2018-01-16T02:42:33.540Z,99.90
2018-01-16T02:45:01.825Z,99.90
2018-01-16T02:47:33.356Z,99.90
2018-01-16T02:50:02.324Z,99.90
2018-01-16T02:52:30.716Z,99.90
2018-01-16T02:54:58.705Z,99.90
2018-01-16T02:57:29.384Z,99.90
2018-01-16T03:00:12.248Z,99.90
2018-01-16T03:02:40.224Z,99.90
2018-01-16T03:05:10.020Z,99.90
2018-01-16T03:07:39.788Z,99.90
2018-01-16T03:10:18.836Z,99.90
2018-01-16T03:12:47.828Z,99.90
2018-01-16T03:15:16.900Z,99.90
2018-01-16T03:17:44.996Z,99.90
2018-01-16T03:20:13.048Z,99.90
2018-01-16T03:22:41.036Z,99.90
2018-01-16T03:25:09.048Z,99.90
2018-01-16T03:27:39.044Z,99.90
2018-01-16T03:30:08.824Z,99.90
2018-01-16T03:32:38.740Z,99.90
2018-01-16T03:35:06.752Z,99.90
2018-01-16T03:37:34.760Z,99.90
2018-01-16T03:40:02.940Z,99.90
2018-01-16T03:42:36.544Z,99.90
2018-01-16T03:45:08.680Z,99.90
2018-01-16T03:47:40.425Z,99.90
2018-01-16T03:50:08.432Z,99.90
2018-01-16T03:52:36.940Z,99.90
2018-01-16T03:55:07.468Z,99.90
2018-01-16T03:57:36.312Z,99.90
2018-01-16T04:00:08.004Z,99.90
2018-01-16T04:02:39.784Z,99.90
2018-01-16T04:05:12.464Z,99.90
2018-01-16T04:07:43.184Z,99.90
2018-01-16T04:10:12.196Z,99.90
2018-01-16T04:12:42.887Z,99.90
2018-01-16T04:15:10.886Z,99.90
2018-01-16T04:17:40.875Z,99.90
2018-01-16T04:20:13.944Z,99.90
2018-01-16T04:22:43.008Z,99.90
2018-01-16T04:25:16.044Z,99.90
2018-01-16T04:27:51.651Z,99.90
2018-01-16T04:30:21.616Z,99.90
2018-01-16T04:32:53.584Z,99.90
2018-01-16T04:35:22.584Z,99.90
2018-01-16T04:38:10.144Z,99.90
2018-01-16T04:40:43.169Z,99.90
2018-01-16T04:43:14.620Z,99.90
2018-01-16T04:46:00.865Z,99.90
2018-01-16T04:48:29.683Z,99.90
2018-01-16T04:50:58.716Z,99.90
2018-01-16T04:53:44.844Z,99.90
2018-01-16T04:56:12.851Z,99.90
2018-01-16T04:58:41.856Z,99.90
2018-01-16T05:01:10.852Z,99.90
2018-01-16T05:03:45.863Z,99.90
2018-01-16T05:06:14.632Z,99.90
2018-01-16T05:08:43.689Z,99.90
2018-01-16T05:11:13.624Z,99.90
2018-01-16T05:13:43.639Z,99.90
2018-01-16T05:16:16.848Z,99.90
2018-01-16T05:18:45.632Z,99.90
2018-01-16T05:21:13.660Z,99.90
2018-01-16T05:23:42.655Z,99.90
2018-01-16T05:26:11.672Z,99.90
2018-01-16T05:28:39.747Z,99.90
2018-01-16T05:31:09.704Z,99.90
2018-01-16T05:33:40.743Z,99.90
2018-01-16T05:36:23.900Z,99.90
2018-01-16T05:38:53.604Z,99.90
2018-01-16T05:41:25.944Z,99.90
2018-01-16T05:43:59.800Z,99.90
2018-01-16T05:46:43.067Z,99.90
2018-01-16T05:49:11.092Z,99.90
2018-01-16T05:51:40.864Z,99.90
2018-01-16T05:54:08.911Z,99.90
2018-01-16T05:56:37.727Z,99.90
2018-01-16T05:59:12.460Z,99.90
2018-01-16T06:01:41.443Z,99.90
2018-01-16T06:04:10.431Z,99.90
2018-01-16T06:06:43.247Z,99.90
2018-01-16T06:09:13.955Z,99.90
2018-01-16T06:11:41.967Z,99.90
2018-01-16T06:14:10.899Z,99.90
2018-01-16T06:16:40.811Z,99.90
2018-01-16T06:19:08.819Z,99.90
2018-01-16T06:21:40.135Z,99.90
2018-01-16T06:24:08.155Z,99.90
2018-01-16T06:26:40.671Z,99.90
2018-01-16T06:29:08.679Z,99.90
2018-01-16T06:31:42.971Z,99.90
2018-01-16T06:34:10.987Z,99.90
2018-01-16T06:36:38.999Z,99.90
2018-01-16T06:39:07.996Z,99.90
2018-01-16T06:41:39.760Z,99.90
2018-01-16T06:44:08.759Z,99.90
2018-01-16T06:46:37.803Z,99.90
2018-01-16T06:49:06.753Z,99.90
2018-01-16T06:51:35.811Z,99.90
2018-01-16T06:54:07.895Z,99.90
2018-01-16T06:56:35.903Z,99.90
2018-01-16T06:59:04.675Z,99.90
2018-01-16T07:01:37.131Z,99.90
2018-01-16T07:04:08.707Z,99.90
2018-01-16T07:06:37.482Z,99.90
2018-01-16T07:09:07.479Z,99.90
2018-01-16T07:11:35.481Z,99.90
2018-01-16T07:14:09.651Z,99.90
2018-01-16T07:16:37.695Z,99.90
2018-01-16T07:19:05.751Z,99.90
2018-01-16T07:21:43.579Z,99.90
2018-01-16T07:24:13.319Z,99.90
2018-01-16T07:26:58.635Z,99.90
2018-01-16T07:29:32.235Z,99.90
2018-01-16T07:32:01.000Z,99.90
2018-01-16T07:34:29.779Z,99.90
2018-01-16T07:36:59.697Z,99.90
2018-01-16T07:39:27.699Z,99.90
2018-01-16T07:41:57.607Z,99.90
2018-01-16T07:44:32.343Z,99.90
2018-01-16T07:47:00.368Z,99.90
2018-01-16T07:49:38.951Z,99.90
2018-01-16T07:52:06.967Z,99.90
2018-01-16T07:54:35.731Z,99.90
2018-01-16T07:57:03.730Z,99.90
2018-01-16T07:59:32.502Z,99.90
2018-01-16T08:02:00.531Z,99.90
2018-01-16T08:04:29.559Z,99.90
2018-01-16T08:07:01.183Z,99.90
2018-01-16T08:09:40.519Z,99.90
2018-01-16T08:12:09.515Z,99.90
2018-01-16T08:14:54.563Z,99.90
2018-01-16T08:17:25.735Z,99.90
2018-01-16T08:19:58.271Z,99.90
2018-01-16T08:22:31.190Z,99.90
2018-01-16T08:25:00.099Z,99.90
2018-01-16T08:27:31.562Z,99.90
2018-01-16T08:30:01.580Z,99.90
2018-01-16T08:32:29.586Z,99.90
2018-01-16T08:35:04.054Z,99.90
2018-01-16T08:37:32.822Z,99.90
2018-01-16T08:40:00.855Z,99.90
2018-01-16T08:42:29.798Z,99.90
2018-01-16T08:44:57.810Z,99.90
2018-01-16T08:47:27.583Z,99.90
2018-01-16T08:49:55.602Z,99.90
2018-01-16T08:52:28.635Z,99.90
2018-01-16T08:55:00.243Z,99.90
2018-01-16T08:57:31.890Z,99.90
2018-01-16T08:59:59.919Z,99.90
2018-01-16T09:02:31.566Z,99.90
2018-01-16T09:05:00.475Z,99.90
2018-01-16T09:07:29.443Z,99.90
2018-01-16T09:10:01.123Z,99.90
2018-01-16T09:12:30.060Z,99.90
2018-01-16T09:14:58.959Z,99.90
2018-01-16T09:17:27.890Z,99.90
2018-01-16T09:20:00.823Z,99.90
2018-01-16T09:22:29.833Z,99.90
2018-01-16T09:25:01.251Z,99.90
2018-01-16T09:27:30.227Z,99.90
2018-01-16T09:30:00.931Z,99.90
2018-01-16T09:32:29.902Z,99.90
2018-01-16T09:34:57.939Z,99.90
2018-01-16T09:37:29.934Z,99.90
2018-01-16T09:39:58.962Z,99.90
2018-01-16T09:42:27.746Z,99.90
2018-01-16T09:44:59.215Z,99.90
2018-01-16T09:47:38.235Z,99.90
2018-01-16T09:50:07.054Z,99.90
2018-01-16T09:52:36.999Z,99.90
2018-01-16T09:55:16.939Z,99.90
2018-01-16T09:57:46.714Z,99.90
2018-01-16T10:00:22.738Z,99.90
2018-01-16T10:02:53.766Z,99.90
2018-01-16T10:05:22.786Z,99.90
2018-01-16T10:07:50.794Z,99.90
2018-01-16T10:10:20.719Z,99.90
2018-01-16T10:12:52.930Z,99.90
2018-01-16T10:15:24.767Z,99.90
2018-01-16T10:17:53.750Z,99.90
2018-01-16T10:20:31.419Z,99.90
2018-01-16T10:23:03.282Z,99.90
2018-01-16T10:25:34.346Z,99.90
2018-01-16T10:28:02.466Z,99.90
2018-01-16T10:30:35.202Z,99.90
2018-01-16T10:33:10.398Z,99.90
2018-01-16T10:35:39.322Z,99.90
2018-01-16T10:38:07.326Z,99.90
2018-01-16T10:40:39.710Z,99.90
2018-01-16T10:43:09.475Z,99.90
2018-01-16T10:45:37.514Z,99.90
2018-01-16T10:48:05.554Z,99.90
2018-01-16T10:50:43.442Z,99.90
2018-01-16T10:53:13.367Z,99.90
2018-01-16T10:55:45.226Z,99.90
2018-01-16T10:58:13.987Z,99.90
2018-01-16T11:00:45.738Z,99.90
2018-01-16T11:03:15.742Z,99.90
2018-01-16T11:05:50.682Z,99.90
2018-01-16T11:08:18.674Z,99.90
2018-01-16T11:10:51.202Z,99.90
2018-01-16T11:13:25.781Z,99.90
2018-01-16T11:15:58.502Z,99.90
2018-01-16T11:18:33.346Z,99.90
2018-01-16T11:21:01.346Z,99.90
2018-01-16T11:23:40.914Z,99.90
2018-01-16T11:26:09.684Z,99.90
2018-01-16T11:28:37.682Z,99.90
2018-01-16T11:31:13.246Z,99.90
2018-01-16T11:33:43.814Z,99.90
2018-01-16T11:36:11.853Z,99.90
2018-01-16T11:38:39.854Z,99.90
2018-01-16T11:41:07.866Z,99.90
2018-01-16T11:43:45.770Z,99.90
2018-01-16T11:46:15.722Z,99.90
2018-01-16T11:48:55.154Z,99.90
2018-01-16T11:51:25.102Z,99.90
2018-01-16T11:53:56.854Z,99.90
2018-01-16T11:56:25.842Z,99.90
2018-01-16T11:58:53.846Z,99.90
2018-01-16T12:01:33.806Z,99.90
2018-01-16T12:04:01.806Z,99.90
2018-01-16T12:06:29.822Z,99.90
2018-01-16T12:08:59.578Z,99.90
2018-01-16T12:11:27.582Z,99.90
2018-01-16T12:14:01.442Z,99.90
2018-01-16T12:16:31.377Z,99.90
2018-01-16T12:18:59.408Z,99.90
2018-01-16T12:21:29.314Z,99.90
2018-01-16T12:23:58.209Z,99.90
2018-01-16T12:26:29.722Z,99.90
2018-01-16T12:28:57.737Z,99.90
2018-01-16T12:31:28.562Z,99.90
2018-01-16T12:33:59.982Z,99.90
2018-01-16T12:36:29.897Z,99.90
2018-01-16T12:38:57.918Z,99.90
2018-01-16T12:41:27.861Z,99.90
2018-01-16T12:43:59.094Z,99.90
2018-01-16T12:46:31.736Z,99.90
2018-01-16T12:49:05.501Z,99.90
2018-01-16T12:51:38.253Z,99.90
2018-01-16T12:54:06.246Z,99.90
2018-01-16T12:56:34.245Z,99.90
2018-01-16T12:59:04.977Z,99.90
2018-01-16T13:01:33.001Z,99.90
2018-01-16T13:04:01.004Z,99.90
2018-01-16T13:06:33.453Z,99.90
2018-01-16T13:09:02.367Z,99.90
2018-01-16T13:11:32.162Z,99.90
2018-01-16T13:14:02.054Z,99.90
2018-01-16T13:16:31.593Z,99.90
2018-01-16T13:19:02.270Z,99.90
2018-01-16T13:21:33.641Z,99.90
2018-01-16T13:24:01.658Z,99.90
2018-01-16T13:26:32.455Z,99.90
2018-01-16T13:29:00.474Z,99.90
2018-01-16T13:31:33.541Z,99.90
2018-01-16T13:34:02.321Z,99.90
2018-01-16T13:36:42.937Z,99.90
2018-01-16T13:39:16.449Z,99.90
2018-01-16T13:41:59.293Z,99.90
2018-01-16T13:44:27.336Z,99.90
2018-01-16T13:46:57.078Z,99.90
2018-01-16T13:49:26.026Z,99.90
2018-01-16T13:51:54.065Z,99.90
2018-01-16T13:54:22.826Z,99.90
2018-01-16T13:57:01.673Z,99.90
2018-01-16T13:59:32.361Z,99.90
2018-01-16T14:02:00.381Z,99.90
2018-01-16T14:04:28.398Z,99.90
2018-01-16T14:06:58.313Z,99.90
2018-01-16T14:09:26.311Z,99.90
2018-01-16T14:12:00.016Z,99.90
2018-01-16T14:14:30.708Z,99.90
2018-01-16T14:16:59.609Z,99.90
2018-01-16T14:19:31.057Z,99.90
2018-01-16T14:21:59.105Z,99.90
2018-01-16T14:24:34.321Z,99.90
2018-01-16T14:27:02.325Z,99.90
2018-01-16T14:29:30.345Z,99.90
2018-01-16T14:32:00.993Z,99.90
2018-01-16T14:34:34.141Z,99.90
2018-01-16T14:37:02.149Z,99.90
2018-01-16T14:39:31.089Z,99.90
2018-01-16T14:42:02.349Z,99.90
2018-01-16T14:44:31.317Z,99.90
2018-01-16T14:46:59.366Z,99.90
2018-01-16T14:49:35.073Z,99.90
2018-01-16T14:52:04.472Z,99.90
2018-01-16T14:54:32.501Z,99.90
2018-01-16T14:57:00.555Z,99.90
2018-01-16T14:59:30.293Z,99.90
2018-01-16T15:01:59.181Z,99.90
2018-01-16T15:04:30.928Z,99.90
2018-01-16T15:07:02.697Z,99.90
2018-01-16T15:09:31.370Z,99.90
2018-01-16T15:12:02.913Z,99.90
2018-01-16T15:14:38.237Z,99.90
2018-01-16T15:17:06.972Z,99.90
2018-01-16T15:19:34.961Z,99.90
2018-01-16T15:22:03.765Z,99.90
2018-01-16T15:24:33.737Z,99.90
2018-01-16T15:27:01.757Z,99.90
2018-01-16T15:29:29.832Z,99.90
2018-01-16T15:31:58.889Z,99.90
2018-01-16T15:34:27.921Z,99.90
2018-01-16T15:36:55.925Z,99.90
2018-01-16T15:39:23.932Z,99.90
2018-01-16T15:41:53.597Z,99.90
2018-01-16T15:44:21.601Z,99.90
2018-01-16T15:46:49.605Z,99.90
2018-01-16T15:49:27.617Z,99.90
2018-01-16T15:51:58.685Z,99.90
2018-01-16T15:54:26.701Z,99.90
2018-01-16T15:56:55.473Z,99.90
2018-01-16T15:59:25.164Z,99.90
2018-01-16T16:01:56.625Z,99.90
2018-01-16T16:04:29.292Z,99.90
2018-01-16T16:06:57.352Z,99.90
2018-01-16T16:09:25.376Z,99.90
2018-01-16T16:11:55.329Z,99.90
2018-01-16T16:14:27.049Z,99.90
2018-01-16T16:16:55.941Z,99.90
2018-01-16T16:19:27.424Z,99.90
2018-01-16T16:21:57.533Z,99.90
2018-01-16T16:24:26.360Z,99.90
2018-01-16T16:26:54.432Z,99.90
2018-01-16T16:29:22.401Z,99.90
2018-01-16T16:31:51.792Z,99.90
2018-01-16T16:34:20.704Z,99.90
2018-01-16T16:36:53.788Z,99.90
2018-01-16T16:39:22.741Z,99.90
2018-01-16T16:42:02.457Z,99.90
2018-01-16T16:44:31.385Z,99.90
2018-01-16T16:47:00.357Z,99.90
2018-01-16T16:49:28.373Z,99.90
2018-01-16T16:52:01.421Z,99.90
2018-01-16T16:54:29.465Z,99.90
2018-01-16T16:56:57.468Z,99.90
2018-01-16T16:59:36.676Z,99.90
2018-01-16T17:02:04.685Z,99.90
2018-01-16T17:04:38.168Z,99.90
2018-01-16T17:07:10.777Z,99.90
2018-01-16T17:09:44.850Z,99.90
2018-01-16T17:12:16.704Z,99.90
2018-01-16T17:14:49.221Z,99.90
2018-01-16T17:17:31.216Z,99.90
2018-01-16T17:20:00.997Z,99.90
2018-01-16T17:22:29.000Z,99.90
2018-01-16T17:24:59.684Z,99.90
2018-01-16T17:27:27.692Z,99.90
2018-01-16T17:30:01.169Z,99.90
2018-01-16T17:32:29.168Z,99.90
2018-01-16T17:34:58.832Z,99.90
2018-01-16T17:37:33.432Z,99.90
2018-01-16T17:40:01.436Z,99.90
2018-01-16T17:42:29.435Z,99.90
2018-01-16T17:44:59.408Z,99.90
2018-01-16T17:47:28.384Z,99.90
2018-01-16T17:49:59.536Z,99.90
2018-01-16T17:52:28.552Z,99.90
2018-01-16T17:54:56.586Z,99.90
2018-01-16T17:57:24.812Z,99.90
2018-01-16T17:59:54.696Z,99.90
2018-01-16T18:02:26.532Z,99.90
2018-01-16T18:05:02.821Z,99.90
2018-01-16T18:07:30.816Z,99.90
2018-01-16T18:10:03.416Z,99.90
2018-01-16T18:12:39.396Z,99.90
2018-01-16T18:15:07.396Z,99.90
2018-01-16T18:17:35.400Z,99.90
2018-01-16T18:20:04.184Z,99.90
2018-01-16T18:22:39.196Z,99.90
2018-01-16T18:25:07.224Z,99.90
2018-01-16T18:27:47.520Z,99.90
2018-01-16T18:30:16.348Z,99.90
2018-01-16T18:32:45.116Z,99.90
2018-01-16T18:35:15.092Z,99.90
2018-01-16T18:37:44.360Z,99.90
2018-01-16T18:40:16.784Z,99.90
2018-01-16T18:42:49.548Z,99.90
2018-01-16T18:45:18.548Z,99.90
2018-01-16T18:47:52.180Z,99.90
2018-01-16T18:50:22.990Z,99.90
2018-01-16T18:52:51.008Z,99.90
2018-01-16T18:55:19.040Z,99.90
2018-01-16T18:57:49.025Z,99.90
2018-01-16T19:00:17.028Z,99.90
2018-01-16T19:02:45.996Z,99.90
2018-01-16T19:05:14.004Z,99.90
2018-01-16T19:07:42.961Z,99.90
2018-01-16T19:10:10.959Z,99.90
2018-01-16T19:12:39.924Z,99.90
2018-01-16T19:15:09.948Z,99.90
2018-01-16T19:17:38.855Z,99.90
2018-01-16T19:20:12.028Z,99.90
2018-01-16T19:22:41.000Z,99.90
2018-01-16T19:25:09.040Z,99.90
2018-01-16T19:27:37.051Z,99.90
2018-01-16T19:30:06.871Z,99.90
2018-01-16T19:32:59.016Z,99.90
2018-01-16T19:35:27.032Z,99.90
2018-01-16T19:37:57.000Z,99.90
2018-01-16T19:40:30.916Z,99.90
2018-01-16T19:43:02.970Z,99.90
2018-01-16T19:45:33.381Z,99.90
2018-01-16T19:48:02.308Z,99.90
2018-01-16T19:50:31.107Z,99.90
2018-01-16T19:53:03.024Z,99.90
2018-01-16T19:55:34.624Z,99.90
2018-01-16T19:58:04.611Z,99.90
2018-01-16T20:00:43.588Z,99.90
2018-01-16T20:03:11.616Z,99.90
2018-01-16T20:05:44.280Z,99.90
2018-01-16T20:08:22.656Z,99.90
2018-01-16T20:10:50.672Z,99.90
2018-01-16T20:13:24.536Z,99.90
2018-01-16T20:15:54.476Z,99.90
2018-01-16T20:18:22.476Z,99.90
2018-01-16T20:21:04.875Z,99.90
2018-01-16T20:23:37.200Z,99.90
2018-01-16T20:26:05.203Z,99.90
2018-01-16T20:28:34.180Z,99.90
2018-01-16T20:31:05.215Z,99.90
2018-01-16T20:33:35.251Z,99.90
2018-01-16T20:36:03.259Z,99.90
2018-01-16T20:38:33.230Z,99.90
2018-01-16T20:41:02.216Z,99.90
2018-01-16T20:43:34.068Z,99.90
2018-01-16T20:46:05.511Z,99.90
2018-01-16T20:48:35.552Z,99.90
2018-01-16T20:51:27.825Z,99.90
2018-01-16T20:53:59.439Z,99.90
2018-01-16T20:56:27.751Z,99.90
2018-01-16T20:58:57.411Z,99.40
2018-01-16T21:01:26.408Z,98.60
2018-01-16T21:03:57.611Z,98.80
2018-01-16T21:06:25.647Z,98.20
2018-01-16T21:08:57.775Z,98.00
2018-01-16T21:11:25.875Z,98.00
2018-01-16T21:14:01.811Z,98.20
2018-01-16T21:16:29.831Z,98.30
2018-01-16T21:19:03.999Z,98.60
2018-01-16T21:21:32.131Z,98.70
2018-01-16T21:24:00.887Z,98.80
2018-01-16T21:26:36.383Z,98.80
2018-01-16T21:29:18.044Z,98.80
2018-01-16T21:31:46.975Z,98.60
2018-01-16T21:34:16.995Z,98.70
2018-01-16T21:36:50.551Z,98.90
2018-01-16T21:39:20.495Z,99.20
2018-01-16T21:41:50.231Z,99.20
2018-01-16T21:44:20.411Z,99.20
2018-01-16T21:46:48.407Z,99.00
2018-01-16T21:49:24.463Z,99.40
2018-01-16T21:51:55.511Z,99.50
2018-01-16T21:54:23.531Z,99.70
2018-01-16T21:56:51.543Z,99.90
2018-01-16T21:59:20.568Z,99.90
2018-01-16T22:01:50.447Z,99.90
2018-01-16T22:04:18.476Z,99.90
2018-01-16T23:21:10.131Z,99.90
2018-01-16T23:23:38.163Z,99.90
2018-01-16T23:26:06.202Z,99.90
2018-01-16T23:28:35.142Z,99.90
2018-01-16T23:31:04.147Z,99.90
2018-01-16T23:33:33.167Z,99.90
2018-01-16T23:36:21.767Z,99.90
2018-01-16T23:38:54.406Z,99.90
2018-01-16T23:41:30.082Z,99.90
2018-01-16T23:43:59.122Z,99.90
2018-01-16T23:46:27.122Z,99.90
2018-01-16T23:48:55.142Z,99.90
2018-01-16T23:51:26.174Z,99.90
2018-01-16T23:53:57.880Z,99.90
2018-01-16T23:56:32.374Z,99.90
2018-01-16T23:59:06.086Z,99.90
